createdAt,value
2018-08-30T00:00:04.375Z,18.20
2018-08-30T00:02:39.731Z,18.10
2018-08-30T00:07:50.446Z,18.10
2018-08-30T00:10:21.920Z,18.00
2018-08-30T01:09:04.523Z,18.00
2018-08-30T01:11:32.729Z,17.80
2018-08-30T01:14:01.678Z,17.70
2018-08-30T01:16:29.724Z,17.70
2018-08-30T01:18:58.673Z,17.70
2018-08-30T01:21:27.789Z,17.70
2018-08-30T01:23:55.860Z,17.70
2018-08-30T01:26:24.047Z,17.70
2018-08-30T01:28:52.581Z,17.70
2018-08-30T01:31:21.042Z,17.70
2018-08-30T01:33:49.853Z,17.70
2018-08-30T01:36:19.010Z,17.60
2018-08-30T01:38:47.177Z,17.70
2018-08-30T01:41:16.548Z,17.60
2018-08-30T01:43:45.158Z,17.60
2018-08-30T01:46:13.013Z,17.60
2018-08-30T01:48:41.065Z,17.50
2018-08-30T01:51:09.745Z,17.50
2018-08-30T01:53:37.495Z,17.50
2018-08-30T01:56:05.633Z,17.40
2018-08-30T01:58:33.315Z,17.40
2018-08-30T02:01:01.277Z,17.30
2018-08-30T02:03:32.195Z,17.30
2018-08-30T02:06:01.099Z,17.20
2018-08-30T02:08:28.846Z,17.20
2018-08-30T02:10:56.830Z,17.10
2018-08-30T02:13:24.833Z,17.10
2018-08-30T02:15:53.395Z,17.10
2018-08-30T02:18:21.397Z,17.10
2018-08-30T02:20:49.318Z,17.10
2018-08-30T02:23:18.248Z,17.10
2018-08-30T02:25:46.071Z,17.10
2018-08-30T02:28:15.084Z,17.10
2018-08-30T02:54:39.992Z,17.10
2018-08-30T02:57:27.950Z,17.10
2018-08-30T03:00:21.438Z,17.10
2018-08-30T03:03:12.182Z,17.10
2018-08-30T03:05:56.764Z,17.10
2018-08-30T03:11:12.243Z,17.10
2018-08-30T03:14:29.078Z,17.10
2018-08-30T03:16:59.081Z,17.10
2018-08-30T03:43:32.481Z,17.00
2018-08-30T03:46:00.679Z,17.00
2018-08-30T03:48:28.363Z,16.90
2018-08-30T03:50:56.072Z,16.90
2018-08-30T03:53:23.978Z,16.90
2018-08-30T03:55:52.559Z,16.90
2018-08-30T03:58:20.592Z,16.90
2018-08-30T04:00:48.356Z,16.90
2018-08-30T04:03:16.862Z,16.90
2018-08-30T04:05:44.433Z,16.80
2018-08-30T04:08:12.477Z,16.80
2018-08-30T04:10:40.210Z,16.80
2018-08-30T04:13:07.697Z,16.80
2018-08-30T04:15:35.307Z,16.80
2018-08-30T04:18:02.700Z,16.80
2018-08-30T04:20:30.275Z,16.70
2018-08-30T04:22:57.796Z,16.70
2018-08-30T04:25:25.207Z,16.70
2018-08-30T04:27:52.840Z,16.70
2018-08-30T04:30:20.317Z,16.70
2018-08-30T04:32:47.824Z,16.70
2018-08-30T04:35:15.378Z,16.70
2018-08-30T04:37:42.863Z,16.70
2018-08-30T04:40:10.572Z,16.60
2018-08-30T04:42:38.041Z,16.60
2018-08-30T04:45:06.237Z,16.60
2018-08-30T04:47:33.729Z,16.60
2018-08-30T04:50:01.238Z,16.50
2018-08-30T04:52:28.700Z,16.50
2018-08-30T04:54:56.229Z,16.40
2018-08-30T04:57:24.342Z,16.40
2018-08-30T04:59:51.782Z,16.40
2018-08-30T05:02:19.269Z,16.40
2018-08-30T05:04:46.733Z,16.40
2018-08-30T05:07:14.293Z,16.40
2018-08-30T05:09:42.695Z,16.30
2018-08-30T05:12:10.266Z,16.40
2018-08-30T05:14:37.652Z,16.30
2018-08-30T05:17:05.265Z,16.30
2018-08-30T05:19:32.706Z,16.30
2018-08-30T05:22:00.452Z,16.30
2018-08-30T05:24:28.035Z,16.30
2018-08-30T05:26:55.526Z,16.30
2018-08-30T05:29:23.020Z,16.20
2018-08-30T05:31:50.622Z,16.20
2018-08-30T05:34:18.039Z,16.20
2018-08-30T05:36:45.812Z,16.20
2018-08-30T05:39:13.292Z,16.10
2018-08-30T05:41:40.774Z,16.10
2018-08-30T05:44:08.275Z,16.10
2018-08-30T05:46:36.165Z,16.10
2018-08-30T05:49:03.535Z,16.10
2018-08-30T05:51:30.915Z,16.10
2018-08-30T05:53:58.261Z,16.00
2018-08-30T05:56:25.617Z,16.10
2018-08-30T05:58:53.097Z,16.10
2018-08-30T06:01:20.899Z,16.10
2018-08-30T06:03:48.587Z,16.10
2018-08-30T06:06:16.073Z,16.10
2018-08-30T06:08:43.611Z,16.10
2018-08-30T06:11:11.019Z,16.10
2018-08-30T06:13:38.404Z,16.10
2018-08-30T06:16:05.763Z,16.10
2018-08-30T06:18:33.154Z,16.00
2018-08-30T06:21:00.551Z,16.10
2018-08-30T06:23:27.917Z,16.10
2018-08-30T06:25:55.405Z,16.10
2018-08-30T06:28:22.864Z,16.10
2018-08-30T06:30:50.242Z,16.20
2018-08-30T06:33:17.833Z,16.30
2018-08-30T06:35:45.483Z,16.30
2018-08-30T06:38:13.038Z,16.40
2018-08-30T06:40:40.397Z,16.50
2018-08-30T06:43:08.551Z,16.60
2018-08-30T06:45:36.300Z,16.60
2018-08-30T06:48:03.724Z,16.60
2018-08-30T06:50:31.462Z,16.60
2018-08-30T06:52:59.112Z,16.60
2018-08-30T06:55:26.524Z,16.60
2018-08-30T06:57:53.946Z,16.60
2018-08-30T07:00:21.349Z,16.60
2018-08-30T07:02:48.957Z,16.60
2018-08-30T07:05:16.497Z,16.60
2018-08-30T07:07:43.928Z,16.70
2018-08-30T07:10:11.567Z,16.80
2018-08-30T07:12:39.059Z,16.80
2018-08-30T07:15:06.789Z,16.80
2018-08-30T07:17:34.232Z,16.80
2018-08-30T07:20:01.910Z,16.80
2018-08-30T07:22:29.623Z,16.90
2018-08-30T07:24:57.243Z,16.80
2018-08-30T07:27:24.951Z,16.80
2018-08-30T07:29:52.981Z,16.80
2018-08-30T07:32:21.272Z,16.80
2018-08-30T07:34:48.899Z,16.70
2018-08-30T07:37:16.400Z,16.70
2018-08-30T07:39:44.006Z,16.70
2018-08-30T07:42:11.629Z,16.70
2018-08-30T07:44:39.230Z,16.70
2018-08-30T07:47:06.980Z,16.80
2018-08-30T07:49:34.739Z,16.80
2018-08-30T07:52:02.911Z,16.80
2018-08-30T07:54:30.528Z,16.90
2018-08-30T07:56:58.155Z,16.90
2018-08-30T07:59:25.853Z,16.80
2018-08-30T08:01:53.652Z,16.80
2018-08-30T08:04:21.480Z,16.80
2018-08-30T08:06:49.035Z,16.80
2018-08-30T08:09:16.604Z,16.80
2018-08-30T08:11:44.270Z,16.80
2018-08-30T08:14:11.813Z,16.70
2018-08-30T08:16:39.405Z,16.70
2018-08-30T08:19:07.063Z,16.70
2018-08-30T08:21:34.905Z,16.70
2018-08-30T08:24:03.200Z,16.80
2018-08-30T08:26:30.691Z,16.80
2018-08-30T08:28:59.163Z,16.80
2018-08-30T08:31:27.376Z,16.80
2018-08-30T08:33:55.069Z,16.80
2018-08-30T08:36:22.554Z,16.80
2018-08-30T08:38:50.184Z,16.80
2018-08-30T08:41:17.712Z,16.80
2018-08-30T08:43:45.228Z,16.80
2018-08-30T08:46:12.754Z,16.90
2018-08-30T08:48:40.459Z,16.90
2018-08-30T08:51:08.130Z,17.10
2018-08-30T08:53:36.189Z,17.20
2018-08-30T08:56:03.756Z,17.30
2018-08-30T08:58:31.269Z,17.50
2018-08-30T09:00:58.947Z,17.70
2018-08-30T09:03:26.725Z,17.70
2018-08-30T09:05:54.607Z,17.80
2018-08-30T09:08:22.293Z,17.80
2018-08-30T09:10:49.967Z,17.70
2018-08-30T09:13:18.317Z,17.60
2018-08-30T09:15:46.119Z,17.60
2018-08-30T09:18:13.713Z,17.50
2018-08-30T09:20:41.724Z,17.40
2018-08-30T09:23:09.448Z,17.40
2018-08-30T09:25:37.012Z,17.40
2018-08-30T09:28:04.864Z,17.40
2018-08-30T09:30:33.442Z,17.50
2018-08-30T09:33:01.458Z,17.50
2018-08-30T09:35:29.108Z,17.50
2018-08-30T09:37:57.347Z,17.50
2018-08-30T09:40:25.184Z,17.50
2018-08-30T09:42:52.919Z,17.50
2018-08-30T09:45:20.670Z,17.60
2018-08-30T09:47:48.393Z,17.70
2018-08-30T09:50:16.111Z,17.60
2018-08-30T09:52:44.293Z,17.50
2018-08-30T09:55:12.584Z,17.40
2018-08-30T09:57:40.581Z,17.30
2018-08-30T10:00:12.881Z,17.20
2018-08-30T10:02:46.418Z,17.10
2018-08-30T10:05:14.050Z,17.10
2018-08-30T10:07:41.545Z,17.20
2018-08-30T10:10:09.325Z,17.30
2018-08-30T10:12:37.057Z,17.50
2018-08-30T10:15:05.763Z,17.40
2018-08-30T10:17:33.348Z,17.50
2018-08-30T10:20:01.018Z,17.50
2018-08-30T10:22:28.526Z,17.50
2018-08-30T10:24:56.700Z,17.50
2018-08-30T10:27:24.215Z,17.30
2018-08-30T10:29:51.918Z,17.30
2018-08-30T10:32:19.671Z,17.20
2018-08-30T10:34:47.919Z,17.20
2018-08-30T10:37:15.500Z,17.10
2018-08-30T10:39:43.328Z,17.20
2018-08-30T10:42:10.789Z,17.20
2018-08-30T10:44:38.547Z,17.10
2018-08-30T10:47:06.251Z,17.00
2018-08-30T10:49:34.228Z,17.00
2018-08-30T10:52:01.861Z,17.00
2018-08-30T10:54:29.544Z,16.90
2018-08-30T10:56:57.193Z,16.90
2018-08-30T10:59:24.765Z,16.90
2018-08-30T11:01:52.481Z,16.80
2018-08-30T11:04:20.211Z,16.90
2018-08-30T11:06:48.042Z,17.00
2018-08-30T11:09:15.662Z,17.10
2018-08-30T11:11:43.701Z,17.30
2018-08-30T11:14:11.834Z,17.50
2018-08-30T11:16:39.560Z,17.80
2018-08-30T11:19:07.303Z,17.80
2018-08-30T11:21:34.932Z,17.70
2018-08-30T11:24:02.802Z,17.60
2018-08-30T11:26:32.285Z,17.40
2018-08-30T11:29:00.038Z,17.30
2018-08-30T11:31:27.926Z,17.20
2018-08-30T11:33:55.529Z,17.20
2018-08-30T11:36:23.491Z,17.20
2018-08-30T11:38:51.771Z,17.30
2018-08-30T11:41:20.109Z,17.50
2018-08-30T11:43:48.291Z,17.70
2018-08-30T11:46:16.517Z,17.80
2018-08-30T11:48:45.255Z,17.70
2018-08-30T11:51:12.976Z,17.70
2018-08-30T11:53:41.925Z,17.70
2018-08-30T11:56:10.891Z,17.90
2018-08-30T11:58:38.739Z,18.10
2018-08-30T12:01:06.438Z,18.10
2018-08-30T12:03:34.890Z,18.00
2018-08-30T12:06:03.584Z,18.00
2018-08-30T12:08:31.575Z,17.90
2018-08-30T12:11:00.672Z,17.80
2018-08-30T12:13:28.478Z,17.70
2018-08-30T12:15:56.713Z,17.60
2018-08-30T12:18:25.599Z,17.40
2018-08-30T12:20:53.536Z,17.20
2018-08-30T12:23:21.899Z,17.10
2018-08-30T12:25:50.554Z,17.00
2018-08-30T12:28:18.752Z,17.00
2018-08-30T12:33:41.986Z,16.90
2018-08-30T12:36:10.737Z,16.90
2018-08-30T12:38:38.604Z,16.90
2018-08-30T12:41:06.517Z,16.90
2018-08-30T12:43:34.619Z,16.90
2018-08-30T12:46:03.588Z,16.90
2018-08-30T12:48:31.799Z,17.00
2018-08-30T12:51:01.503Z,17.00
2018-08-30T12:53:30.066Z,17.10
2018-08-30T12:55:58.402Z,17.20
2018-08-30T12:58:31.025Z,17.30
2018-08-30T13:01:01.770Z,17.40
2018-08-30T13:03:40.898Z,17.50
2018-08-30T13:06:13.432Z,17.60
2018-08-30T13:08:41.840Z,17.60
2018-08-30T13:11:13.858Z,17.50
2018-08-30T13:13:47.150Z,17.50
2018-08-30T13:16:28.308Z,17.40
2018-08-30T13:18:56.630Z,17.50
2018-08-30T13:21:25.719Z,17.50
2018-08-30T13:23:55.322Z,17.50
2018-08-30T13:26:34.664Z,17.60
2018-08-30T13:29:26.311Z,17.80
2018-08-30T13:31:54.392Z,17.80
2018-08-30T13:37:34.543Z,17.70
2018-08-30T13:40:03.057Z,17.80
2018-08-30T13:42:32.952Z,17.80
2018-08-30T13:45:01.542Z,17.90
2018-08-30T13:47:30.126Z,17.80
2018-08-30T13:49:59.012Z,17.80
2018-08-30T13:52:27.484Z,17.80
2018-08-30T22:46:40.136Z,17.80
2018-08-30T22:49:07.850Z,12.30
2018-08-30T22:51:35.559Z,12.20
2018-08-30T22:54:03.309Z,12.20
2018-08-30T22:56:31.651Z,12.10
2018-08-30T22:58:59.233Z,12.10
2018-08-30T23:01:26.968Z,12.10
2018-08-30T23:03:55.204Z,12.10
2018-08-30T23:06:22.793Z,12.10
2018-08-30T23:08:50.438Z,12.10
2018-08-30T23:11:18.126Z,12.10
2018-08-30T23:13:45.641Z,12.20
2018-08-30T23:16:13.248Z,12.20
2018-08-30T23:18:40.853Z,12.20
2018-08-30T23:21:09.113Z,12.20
2018-08-30T23:23:36.807Z,12.20
2018-08-30T23:26:04.519Z,12.10
2018-08-30T23:28:32.148Z,12.20
2018-08-30T23:31:00.058Z,12.10
2018-08-30T23:33:27.641Z,12.00
2018-08-30T23:35:55.348Z,12.00
2018-08-30T23:38:23.588Z,12.00
2018-08-30T23:40:51.358Z,11.90
2018-08-30T23:43:18.923Z,11.90
2018-08-30T23:45:46.548Z,11.90
2018-08-30T23:48:14.970Z,11.80
2018-08-30T23:50:42.568Z,11.80
2018-08-30T23:53:10.264Z,11.80
2018-08-30T23:55:38.399Z,11.70
2018-08-30T23:58:17.644Z,11.70
